Time;durP1;ratioP1;P1;durP2;ratioP2;P2;SDS_P1;SDS_P2;PMS_P1;PMS_P2;Temp;Humidity;BMP_temperature;BMP_pressure;BME280_temperature;BME280_humidity;BME280_pressure;Samples;Min_cycle;Max_cycle;Signal;HPM_P1;HPM_P2
2021/11/17 02:26:03;;;;;;;108.85;93.38;;;6.70;99.90;;;;;;5096674;28;20157;-87
2021/11/17 02:28:28;;;;;;;100.75;88.07;;;6.70;99.90;;;;;;5097364;28;20250;-87
2021/11/17 02:31:38;;;;;;;101.83;89.27;;;6.70;99.90;;;;;;5095505;28;20163;-87
2021/11/17 02:34:28;;;;;;;106.82;95.00;;;6.70;99.90;;;;;;5096830;28;20151;-87
2021/11/17 02:37:05;;;;;;;107.38;95.57;;;6.70;99.90;;;;;;5096137;28;20546;-87
2021/11/17 02:39:47;;;;;;;104.90;85.68;;;6.70;99.90;;;;;;5093518;28;20234;-87
2021/11/17 02:42:48;;;;;;;103.55;89.78;;;6.70;99.90;;;;;;5168889;22;20821;-86
2021/11/17 02:45:40;;;;;;;103.10;91.00;;;6.70;99.90;;;;;;5059283;28;20172;-86
2021/11/17 02:48:29;;;;;;;109.95;96.43;;;6.70;99.90;;;;;;5062038;28;20160;-86
2021/11/17 02:50:55;;;;;;;104.82;92.85;;;6.70;99.90;;;;;;5064801;28;20160;-86
2021/11/17 02:53:26;;;;;;;114.97;100.50;;;6.70;99.90;;;;;;5062746;28;20726;-86
2021/11/17 02:55:55;;;;;;;104.65;90.28;;;6.70;99.90;;;;;;5062838;28;20214;-86
2021/11/17 02:58:30;;;;;;;109.40;95.97;;;6.70;99.90;;;;;;5080151;28;20336;-86
2021/11/17 03:01:20;;;;;;;102.15;89.03;;;6.60;99.90;;;;;;5080440;28;20632;-86
2021/11/17 03:04:05;;;;;;;106.78;93.75;;;6.60;99.90;;;;;;5080598;28;20272;-86
2021/11/17 03:06:37;;;;;;;120.97;108.53;;;6.60;99.90;;;;;;5062536;28;20152;-86
2021/11/17 03:09:58;;;;;;;98.90;80.05;;;6.70;99.90;;;;;;5045988;28;20191;-86
2021/11/17 03:13:01;;;;;;;116.10;104.03;;;6.70;99.90;;;;;;5010154;28;20205;-86
2021/11/17 03:15:54;;;;;;;108.00;96.28;;;6.70;99.90;;;;;;5067439;28;20547;-86
2021/11/17 03:18:29;;;;;;;106.30;89.47;;;6.60;99.90;;;;;;5046393;28;20562;-85
2021/11/17 03:21:17;;;;;;;106.10;92.20;;;6.60;99.90;;;;;;5080239;28;20140;-86
2021/11/17 03:24:23;;;;;;;104.60;88.80;;;6.70;99.90;;;;;;5079971;28;20156;-86
2021/11/17 03:27:11;;;;;;;102.18;87.10;;;6.60;99.90;;;;;;5062211;28;20148;-86
2021/11/17 03:29:55;;;;;;;105.07;87.63;;;6.60;99.90;;;;;;5061488;28;20227;-86
2021/11/17 03:32:48;;;;;;;114.68;102.60;;;6.60;99.90;;;;;;5080071;28;20603;-86
2021/11/17 03:36:01;;;;;;;106.32;87.43;;;6.60;99.90;;;;;;5079551;28;20608;-86
2021/11/17 03:38:47;;;;;;;99.20;81.85;;;6.60;99.90;;;;;;5017767;28;20206;-86
2021/11/17 03:41:40;;;;;;;104.65;72.63;;;6.60;99.90;;;;;;5018339;28;20177;-85
2021/11/17 03:44:19;;;;;;;110.43;96.05;;;6.60;99.90;;;;;;5052372;28;20180;-86
2021/11/17 03:46:48;;;;;;;110.88;98.65;;;6.50;99.90;;;;;;5078784;28;20144;-85
2021/11/17 03:49:19;;;;;;;129.25;116.05;;;6.50;99.90;;;;;;5061136;28;20318;-86
2021/11/17 03:51:54;;;;;;;109.32;84.75;;;6.50;99.90;;;;;;5078485;28;20161;-86
2021/11/17 03:54:50;;;;;;;112.97;100.40;;;6.50;99.90;;;;;;5060929;28;20250;-85
2021/11/17 03:57:33;;;;;;;113.32;101.00;;;6.60;99.90;;;;;;5079311;28;20635;-86
2021/11/17 04:00:21;;;;;;;127.85;114.95;;;6.60;99.90;;;;;;5062266;28;20184;-85
2021/11/17 04:02:53;;;;;;;124.43;112.07;;;6.50;99.90;;;;;;5061053;28;20209;-85
2021/11/17 04:05:24;;;;;;;118.72;106.63;;;6.50;99.90;;;;;;5078751;28;20178;-86
2021/11/17 04:07:53;;;;;;;124.43;111.70;;;6.60;99.90;;;;;;5079180;28;20523;-86
2021/11/17 04:10:37;;;;;;;131.18;118.55;;;6.60;99.90;;;;;;5078918;28;20179;-85
2021/11/17 04:13:30;;;;;;;125.80;113.13;;;6.50;99.90;;;;;;5061921;28;20516;-86
2021/11/17 04:16:17;;;;;;;136.48;123.22;;;6.50;99.90;;;;;;5061173;28;20617;-85
2021/11/17 04:18:59;;;;;;;124.65;111.93;;;6.60;99.90;;;;;;5044827;28;20206;-85
2021/11/17 04:21:49;;;;;;;134.93;121.45;;;6.60;99.90;;;;;;5045029;28;20590;-86
2021/11/17 04:24:25;;;;;;;139.55;126.50;;;6.50;99.90;;;;;;5046425;28;20619;-86
2021/11/17 04:27:32;;;;;;;140.48;127.53;;;6.50;99.90;;;;;;5078271;28;20140;-85
2021/11/17 04:30:21;;;;;;;119.70;107.32;;;6.60;99.90;;;;;;5052090;28;20679;-85
2021/11/17 04:33:03;;;;;;;122.20;109.93;;;6.60;99.90;;;;;;5077877;28;20170;-85
2021/11/17 04:35:31;;;;;;;113.43;101.28;;;6.60;99.90;;;;;;5044158;28;20209;-85
2021/11/17 04:38:09;;;;;;;128.55;115.35;;;6.70;99.90;;;;;;5059945;28;20368;-85
2021/11/17 04:40:56;;;;;;;128.85;116.28;;;6.70;99.90;;;;;;5059870;28;20704;-85
2021/11/17 04:43:46;;;;;;;116.00;103.40;;;6.80;99.90;;;;;;5077631;28;20194;-85
2021/11/17 04:46:21;;;;;;;116.70;104.28;;;6.80;99.90;;;;;;5059057;28;20170;-86
2021/11/17 04:49:11;;;;;;;127.72;115.13;;;6.70;99.90;;;;;;5077302;28;20193;-86
2021/11/17 04:52:01;;;;;;;151.52;137.82;;;6.70;99.90;;;;;;5059783;28;20596;-86
2021/11/17 04:54:33;;;;;;;137.80;124.90;;;6.60;99.90;;;;;;5077757;28;20170;-86
2021/11/17 04:57:11;;;;;;;134.70;121.82;;;6.70;99.90;;;;;;5077467;28;20152;-85
2021/11/17 04:59:48;;;;;;;137.25;123.75;;;6.60;99.90;;;;;;5077055;28;20191;-86
2021/11/17 05:02:20;;;;;;;138.10;125.15;;;6.70;99.90;;;;;;5058647;28;20167;-86
2021/11/17 05:04:59;;;;;;;161.75;147.55;;;6.70;99.90;;;;;;5077668;28;20187;-85
2021/11/17 05:07:45;;;;;;;144.63;131.20;;;6.70;99.90;;;;;;5042695;28;20217;-86
2021/11/17 05:10:17;;;;;;;175.48;160.88;;;6.60;99.90;;;;;;5059083;28;20188;-85
2021/11/17 05:13:20;;;;;;;140.75;127.63;;;6.60;99.90;;;;;;5059332;28;20171;-86
2021/11/17 05:16:07;;;;;;;129.02;116.00;;;6.70;99.90;;;;;;5077492;28;20163;-86
2021/11/17 05:18:51;;;;;;;128.50;115.88;;;6.70;99.90;;;;;;5060816;28;20550;-85
2021/11/17 05:21:49;;;;;;;150.68;136.93;;;6.70;99.90;;;;;;5076935;28;20172;-85
2021/11/17 05:25:03;;;;;;;144.27;130.75;;;6.70;99.90;;;;;;5077344;28;20607;-85
2021/11/17 05:27:44;;;;;;;126.93;113.82;;;6.80;99.90;;;;;;5005867;28;20174;-85
2021/11/17 05:30:43;;;;;;;126.22;113.75;;;6.80;99.90;;;;;;5077114;28;20187;-85
2021/11/17 05:33:29;;;;;;;129.57;116.53;;;6.80;99.90;;;;;;5059502;28;20149;-85
2021/11/17 05:36:16;;;;;;;131.93;118.95;;;6.70;99.90;;;;;;5058662;28;20186;-85
2021/11/17 05:39:12;;;;;;;133.85;121.15;;;6.70;99.90;;;;;;5076898;28;20199;-85
2021/11/17 05:41:44;;;;;;;116.43;104.05;;;6.70;99.90;;;;;;5077364;28;20192;-85
2021/11/17 05:44:24;;;;;;;116.95;104.68;;;6.70;99.90;;;;;;5077280;28;20167;-85
2021/11/17 05:47:21;;;;;;;146.27;132.88;;;6.70;99.90;;;;;;5076568;28;20183;-86
2021/11/17 05:49:58;;;;;;;126.38;113.20;;;6.70;99.90;;;;;;5058641;28;20292;-86
2021/11/17 05:52:37;;;;;;;113.20;100.93;;;6.70;99.90;;;;;;5058165;28;20159;-85
2021/11/17 05:55:20;;;;;;;115.43;103.38;;;6.80;99.90;;;;;;5058338;28;20164;-85
2021/11/17 05:57:55;;;;;;;123.38;110.35;;;6.80;99.90;;;;;;5076463;28;20183;-85
2021/11/17 06:00:21;;;;;;;130.52;117.60;;;6.70;99.90;;;;;;5076915;28;20178;-85
2021/11/17 06:02:58;;;;;;;157.57;143.57;;;6.70;99.90;;;;;;5076411;28;20156;-85
2021/11/17 06:05:31;;;;;;;150.18;136.68;;;6.70;99.90;;;;;;5058787;28;20144;-85
2021/11/17 06:07:57;;;;;;;197.25;181.93;;;6.70;99.90;;;;;;5058754;28;20192;-85
2021/11/17 06:10:33;;;;;;;185.47;170.83;;;6.60;99.90;;;;;;5075776;28;20242;-85
2021/11/17 06:13:04;;;;;;;172.95;157.75;;;6.70;99.90;;;;;;5075976;28;20160;-85
2021/11/17 06:15:31;;;;;;;128.05;114.85;;;6.70;99.90;;;;;;5080109;28;20639;-85
2021/11/17 06:17:58;;;;;;;152.35;139.18;;;6.70;99.90;;;;;;5080268;28;20267;-84
2021/11/17 06:20:25;;;;;;;147.93;134.80;;;6.70;99.90;;;;;;5079471;28;20179;-85
2021/11/17 06:22:56;;;;;;;154.82;140.75;;;6.70;99.90;;;;;;5061211;28;20164;-85
2021/11/17 06:25:23;;;;;;;173.90;159.68;;;6.70;99.90;;;;;;5061479;28;20558;-85
2021/11/17 06:27:52;;;;;;;177.00;162.77;;;6.60;99.90;;;;;;5079929;28;20163;-84
2021/11/17 06:30:20;;;;;;;181.13;166.25;;;6.60;99.90;;;;;;5080196;28;20179;-85
2021/11/17 06:32:46;;;;;;;171.88;158.02;;;6.60;99.90;;;;;;5079777;28;20164;-85
2021/11/17 06:35:14;;;;;;;218.73;202.10;;;6.60;99.90;;;;;;5079951;28;20167;-85
2021/11/17 06:37:40;;;;;;;198.88;183.50;;;6.60;99.90;;;;;;5061796;28;20194;-85
2021/11/17 06:40:13;;;;;;;197.25;182.45;;;6.50;99.90;;;;;;5079959;28;20180;-85
2021/11/17 06:42:46;;;;;;;230.18;213.57;;;6.40;99.90;;;;;;5078971;28;20179;-84
2021/11/17 06:45:16;;;;;;;199.20;184.30;;;6.40;99.90;;;;;;5079305;28;20154;-85
2021/11/17 06:47:42;;;;;;;194.85;180.25;;;6.40;99.90;;;;;;5079532;28;20204;-84
2021/11/17 06:50:08;;;;;;;233.07;217.38;;;6.40;99.90;;;;;;5061514;28;20191;-85
2021/11/17 06:52:34;;;;;;;209.32;194.10;;;6.40;99.90;;;;;;5061304;28;20218;-84
2021/11/17 06:55:00;;;;;;;234.43;217.70;;;6.40;99.90;;;;;;5079296;28;20175;-86
2021/11/17 06:57:25;;;;;;;227.23;211.33;;;6.40;99.90;;;;;;5080994;28;20191;-87
2021/11/17 06:59:51;;;;;;;230.33;213.93;;;6.40;99.90;;;;;;5062593;28;20694;-86
2021/11/17 07:02:17;;;;;;;220.63;205.17;;;6.40;99.90;;;;;;5079994;28;20152;-85
2021/11/17 07:04:42;;;;;;;262.07;244.80;;;6.40;99.90;;;;;;5079981;28;20160;-84
2021/11/17 07:07:10;;;;;;;217.57;202.20;;;6.40;99.90;;;;;;5080806;28;20156;-85
2021/11/17 07:09:40;;;;;;;213.18;197.80;;;6.50;99.90;;;;;;5079389;28;20190;-85
2021/11/17 07:12:06;;;;;;;204.30;189.32;;;6.40;99.90;;;;;;5079658;28;20160;-85
2021/11/17 07:14:32;;;;;;;222.52;206.45;;;6.40;99.90;;;;;;5079318;28;20160;-85
2021/11/17 07:16:58;;;;;;;245.73;229.20;;;6.50;99.90;;;;;;5061183;28;20524;-85
2021/11/17 07:19:24;;;;;;;213.83;198.57;;;6.50;99.90;;;;;;5062144;28;20468;-85
2021/11/17 07:21:53;;;;;;;201.50;186.70;;;6.60;99.90;;;;;;5079024;28;20424;-85
2021/11/17 07:24:26;;;;;;;225.02;209.00;;;6.60;99.90;;;;;;5060464;28;20258;-84
2021/11/17 07:26:58;;;;;;;221.05;205.23;;;6.50;99.90;;;;;;5060030;28;20160;-84
2021/11/17 07:29:25;;;;;;;231.57;214.57;;;6.50;99.90;;;;;;5060873;28;20285;-84
2021/11/17 07:31:51;;;;;;;202.27;186.68;;;6.50;99.90;;;;;;5061248;28;20179;-85
2021/11/17 07:34:17;;;;;;;172.60;158.53;;;6.60;99.90;;;;;;5061126;28;20172;-85
2021/11/17 07:36:44;;;;;;;163.70;149.57;;;6.60;99.90;;;;;;5060771;28;20172;-85
2021/11/17 07:39:17;;;;;;;146.82;133.88;;;6.70;99.90;;;;;;5059967;28;20464;-84
2021/11/17 07:41:48;;;;;;;121.43;109.40;;;6.80;99.90;;;;;;5059903;28;20180;-84
2021/11/17 07:44:16;;;;;;;158.85;144.93;;;6.90;99.90;;;;;;5079036;28;20156;-84
2021/11/17 07:46:43;;;;;;;137.90;124.53;;;6.80;99.90;;;;;;5078363;28;20194;-85
2021/11/17 07:49:10;;;;;;;146.40;133.02;;;6.90;99.90;;;;;;5060616;28;20195;-85
2021/11/17 07:51:36;;;;;;;154.85;141.65;;;6.80;99.90;;;;;;5078660;28;20164;-85
2021/11/17 07:54:01;;;;;;;137.30;124.63;;;6.90;99.90;;;;;;5077743;28;20213;-85
2021/11/17 07:56:27;;;;;;;144.70;131.33;;;6.90;99.90;;;;;;5077993;28;20168;-85
2021/11/17 07:58:53;;;;;;;184.00;169.40;;;6.90;99.90;;;;;;5077880;28;20206;-85
2021/11/17 08:01:19;;;;;;;207.03;191.57;;;6.80;99.90;;;;;;5060291;28;20187;-84
2021/11/17 08:03:48;;;;;;;158.23;144.93;;;6.80;99.90;;;;;;5060335;28;20191;-85
2021/11/17 08:06:17;;;;;;;159.35;145.80;;;6.90;99.90;;;;;;5061457;28;20409;-85
2021/11/17 08:08:44;;;;;;;177.57;163.00;;;6.90;99.90;;;;;;5060786;28;20188;-85
2021/11/17 08:11:13;;;;;;;134.00;121.47;;;7.00;99.90;;;;;;5079120;28;20171;-85
2021/11/17 08:13:39;;;;;;;103.72;85.90;;;7.10;99.90;;;;;;5079030;28;20160;-85
2021/11/17 08:16:06;;;;;;;121.65;109.65;;;7.20;99.90;;;;;;5078215;28;20174;-85
2021/11/17 08:18:33;;;;;;;100.57;80.57;;;7.20;99.90;;;;;;5076905;28;20199;-84
2021/11/17 08:21:09;;;;;;;108.00;81.75;;;7.30;99.90;;;;;;5077957;28;20156;-85
2021/11/17 08:23:35;;;;;;;101.72;84.13;;;7.30;99.90;;;;;;5076848;28;20223;-84
2021/11/17 08:26:01;;;;;;;99.27;88.23;;;7.30;99.90;;;;;;5077804;28;20257;-84
2021/11/17 08:28:27;;;;;;;99.32;83.97;;;7.40;99.90;;;;;;5077738;28;20422;-85
2021/11/17 08:30:55;;;;;;;97.60;78.27;;;7.40;99.90;;;;;;5059515;28;20742;-85
2021/11/17 08:33:21;;;;;;;115.40;103.18;;;7.50;99.90;;;;;;5078545;28;20183;-85
2021/11/17 08:35:53;;;;;;;98.83;77.10;;;7.60;99.90;;;;;;5078577;28;20193;-86
2021/11/17 08:38:22;;;;;;;117.13;105.40;;;7.60;99.90;;;;;;5060465;28;20441;-84
2021/11/17 08:41:26;;;;;;;117.57;105.65;;;7.70;99.90;;;;;;5140414;22;20195;-86
2021/11/17 08:43:55;;;;;;;109.03;96.95;;;7.80;99.90;;;;;;5099241;28;20171;-86
2021/11/17 08:46:24;;;;;;;106.15;94.95;;;7.80;99.90;;;;;;5097725;28;20732;-86
2021/11/17 08:49:03;;;;;;;;;;;;;;;;;;;;;
2021/11/17 08:51:51;;;;;;;;;;;;;;;;;;;;;
2021/11/17 08:54:26;;;;;;;102.18;87.78;;;7.80;99.90;;;;;;5095577;28;20254;-86
2021/11/17 08:56:58;;;;;;;103.95;92.78;;;7.80;99.90;;;;;;5096294;28;20175;-86
2021/11/17 08:59:46;;;;;;;116.65;105.13;;;7.80;99.90;;;;;;5098439;28;20199;-85
2021/11/17 09:02:17;;;;;;;99.50;88.30;;;7.70;99.90;;;;;;5098799;28;20195;-86
2021/11/17 09:05:29;;;;;;;107.47;95.68;;;7.80;99.90;;;;;;5097955;28;20190;-85
2021/11/17 09:11:02;;;;;;;106.88;94.57;;;7.70;99.90;;;;;;5087068;28;20650;-85
2021/11/17 09:13:43;;;;;;;112.55;101.03;;;7.70;99.90;;;;;;5098276;28;20240;-85
2021/11/17 09:16:18;;;;;;;107.80;96.20;;;7.70;99.90;;;;;;5096045;28;20175;-85
2021/11/17 09:18:50;;;;;;;121.72;109.57;;;7.70;99.90;;;;;;5097662;28;20273;-85
2021/11/17 09:24:25;;;;;;;120.75;109.00;;;7.70;99.90;;;;;;5097854;28;20186;-85
2021/11/17 09:26:57;;;;;;;100.80;89.80;;;7.70;99.90;;;;;;5096902;28;20258;-85
2021/11/17 09:29:27;;;;;;;110.15;98.68;;;7.60;99.90;;;;;;5097995;28;20198;-86
2021/11/17 09:32:45;;;;;;;103.63;87.47;;;7.60;99.90;;;;;;5097974;28;20178;-86
2021/11/17 09:35:16;;;;;;;100.65;83.85;;;7.60;99.90;;;;;;5097323;28;20526;-86
2021/11/17 09:37:58;;;;;;;102.90;91.75;;;7.60;99.90;;;;;;5098350;28;20184;-86
2021/11/17 09:41:00;;;;;;;109.53;98.25;;;7.70;99.90;;;;;;5096742;28;20187;-86
2021/11/17 09:43:40;;;;;;;120.03;108.32;;;7.90;99.90;;;;;;5097056;28;20224;-86
2021/11/17 09:53:14;;;;;;;119.35;107.15;;;7.90;99.90;;;;;;5084249;28;20178;-85
2021/11/17 09:56:26;;;;;;;104.88;93.50;;;8.00;99.90;;;;;;5102220;28;20166;-86
2021/11/17 09:59:10;;;;;;;;;;;;;;;;;;;;;
2021/11/17 10:02:06;;;;;;;100.78;89.03;;;8.20;99.90;;;;;;5058927;28;20719;-85
2021/11/17 10:06:02;;;;;;;109.32;97.45;;;8.10;99.90;;;;;;5089730;28;20207;-86
2021/11/17 10:08:50;;;;;;;98.60;85.13;;;8.10;99.90;;;;;;5079600;28;20542;-85
2021/11/17 10:15:09;;;;;;;104.35;93.10;;;8.10;99.90;;;;;;5099356;28;20179;-86
2021/11/17 10:24:48;;;;;;;105.53;83.57;;;8.20;99.90;;;;;;5038438;28;20237;-86
2021/11/17 10:27:35;;;;;;;111.75;100.30;;;8.10;99.90;;;;;;5023306;28;20161;-86
2021/11/17 10:30:26;;;;;;;127.43;115.38;;;8.10;99.90;;;;;;5102318;28;20175;-86
2021/11/17 10:33:35;;;;;;;101.13;90.10;;;8.30;99.90;;;;;;5101136;28;20168;-86
2021/11/17 10:36:46;;;;;;;99.68;87.32;;;8.30;99.90;;;;;;5103581;28;20148;-87
2021/11/17 10:39:53;;;;;;;105.47;90.80;;;8.30;99.90;;;;;;5097355;28;20210;-87
2021/11/17 10:43:10;;;;;;;113.22;101.28;;;8.20;99.90;;;;;;5104159;28;20171;-87
2021/11/17 10:46:26;;;;;;;106.40;94.80;;;8.20;99.90;;;;;;5051161;28;20179;-87
2021/11/17 10:52:56;;;;;;;152.10;138.82;;;8.30;99.90;;;;;;5061391;28;20548;-87
2021/11/17 10:56:09;;;;;;;;;;;;;;;;;;;;;
2021/11/17 10:58:43;;;;;;;131.38;118.43;;;8.40;99.90;;;;;;5102810;28;20281;-86
2021/11/17 11:01:49;;;;;;;150.88;137.65;;;8.40;99.90;;;;;;5103373;28;20210;-87
2021/11/17 11:04:24;;;;;;;138.00;125.22;;;8.30;99.90;;;;;;5104010;28;20178;-86
2021/11/17 11:07:16;;;;;;;157.70;143.93;;;8.20;99.90;;;;;;5104936;28;20151;-87
2021/11/17 11:10:19;;;;;;;154.23;140.75;;;8.20;99.90;;;;;;5103207;28;20183;-87
2021/11/17 11:12:58;;;;;;;121.82;109.60;;;8.20;99.90;;;;;;5097604;28;20183;-86
2021/11/17 11:15:46;;;;;;;140.55;127.45;;;8.30;99.90;;;;;;5102068;28;20151;-87
2021/11/17 11:18:24;;;;;;;137.15;124.03;;;8.30;99.90;;;;;;5102121;28;20179;-87
2021/11/17 11:21:01;;;;;;;151.88;138.25;;;8.30;99.90;;;;;;5101510;28;20167;-87
2021/11/17 11:23:30;;;;;;;170.80;156.38;;;8.30;99.90;;;;;;5103295;28;20148;-87
2021/11/17 11:26:31;;;;;;;142.02;129.07;;;8.30;99.90;;;;;;5102147;28;20167;-86
2021/11/17 11:29:29;;;;;;;151.52;138.07;;;8.40;99.90;;;;;;5102188;28;20187;-87
2021/11/17 11:32:28;;;;;;;130.75;117.75;;;8.40;99.90;;;;;;5100787;28;20369;-87
2021/11/17 11:35:09;;;;;;;115.80;103.93;;;8.50;99.90;;;;;;5098183;28;20202;-86
2021/11/17 11:38:08;;;;;;;152.88;137.88;;;8.50;99.90;;;;;;5104549;28;20167;-87
2021/11/17 11:41:23;;;;;;;141.05;127.18;;;8.60;99.90;;;;;;5101024;28;20670;-87
2021/11/17 11:44:40;;;;;;;128.65;115.85;;;8.60;99.90;;;;;;5067391;28;20194;-87
2021/11/17 11:47:24;;;;;;;111.88;98.95;;;8.70;99.90;;;;;;5100713;28;20204;-85
2021/11/17 11:50:36;;;;;;;119.32;107.43;;;8.70;99.90;;;;;;5102014;28;20214;-86
2021/11/17 11:56:48;;;;;;;;;;;;;;;;;;;;;
2021/11/17 11:59:19;;;;;;;172.95;158.73;;;8.60;99.90;;;;;;5102392;28;20258;-87
2021/11/17 12:02:07;;;;;;;166.75;152.93;;;8.70;99.90;;;;;;5101089;28;20538;-87
2021/11/17 12:05:18;;;;;;;191.00;175.95;;;8.70;99.90;;;;;;5103646;28;20152;-87
2021/11/17 12:15:21;;;;;;;155.15;140.88;;;8.70;99.90;;;;;;5097242;28;20636;-87
2021/11/17 12:18:33;;;;;;;192.98;177.90;;;8.80;99.90;;;;;;5079912;28;20205;-87
2021/11/17 12:21:10;;;;;;;240.27;223.23;;;8.80;99.90;;;;;;5077672;28;20171;-86
2021/11/17 12:23:43;;;;;;;210.57;194.60;;;8.80;99.90;;;;;;5099654;28;20230;-86
2021/11/17 12:26:34;;;;;;;253.68;236.85;;;8.90;99.90;;;;;;5099692;28;20175;-86
2021/11/17 12:29:20;;;;;;;254.95;237.55;;;8.90;99.90;;;;;;5097780;28;20198;-86
2021/11/17 12:31:55;;;;;;;221.40;205.23;;;9.00;99.90;;;;;;5096705;28;20626;-86
2021/11/17 12:34:58;;;;;;;235.18;217.95;;;9.10;99.90;;;;;;5099223;28;20514;-86
2021/11/17 12:38:18;;;;;;;223.00;207.02;;;9.10;99.90;;;;;;5088602;28;20202;-86
2021/11/17 12:40:56;;;;;;;243.57;226.07;;;9.20;99.90;;;;;;5086441;28;20258;-86
2021/11/17 12:43:42;;;;;;;221.98;205.32;;;9.20;99.90;;;;;;5098681;28;20166;-85
2021/11/17 12:46:34;;;;;;;262.23;243.55;;;9.30;99.90;;;;;;5098296;28;20151;-86
2021/11/17 12:49:28;;;;;;;244.38;227.77;;;9.30;99.90;;;;;;5084056;28;20216;-85
2021/11/17 12:52:38;;;;;;;;;;;;;;;;;;;;;
2021/11/17 12:55:59;;;;;;;180.77;165.90;;;9.40;99.90;;;;;;5097861;28;20250;-86
2021/11/17 12:58:42;;;;;;;187.25;172.40;;;9.50;99.90;;;;;;5069118;28;20314;-85
2021/11/17 13:01:46;;;;;;;283.48;265.00;;;9.50;99.90;;;;;;5097021;28;20267;-86
2021/11/17 13:04:27;;;;;;;241.40;224.02;;;9.50;99.90;;;;;;5096502;28;20171;-85
2021/11/17 13:07:03;;;;;;;249.25;231.98;;;9.50;99.90;;;;;;5098186;28;20197;-85
2021/11/17 13:10:05;;;;;;;252.75;235.32;;;9.50;99.90;;;;;;5095683;28;20558;-85
2021/11/17 13:12:40;;;;;;;214.23;198.57;;;9.50;99.90;;;;;;5093971;28;20205;-86
2021/11/17 13:15:21;;;;;;;250.32;232.82;;;9.60;99.90;;;;;;5097163;28;20158;-85
2021/11/17 13:17:56;;;;;;;214.90;199.32;;;9.60;99.90;;;;;;5097370;28;20198;-85
2021/11/17 13:20:29;;;;;;;271.70;253.15;;;9.60;99.90;;;;;;5096146;28;20194;-85
2021/11/17 13:23:15;;;;;;;229.48;212.88;;;9.60;99.90;;;;;;5095347;28;20159;-85
2021/11/17 13:26:20;;;;;;;268.42;250.30;;;9.60;99.90;;;;;;5095383;28;20515;-85
2021/11/17 13:28:49;;;;;;;270.48;252.27;;;9.70;99.90;;;;;;5072242;28;20263;-86
2021/11/17 13:31:36;;;;;;;273.38;255.27;;;9.60;99.90;;;;;;5095625;28;20182;-85
2021/11/17 13:34:43;;;;;;;224.88;208.30;;;9.60;99.90;;;;;;5097166;28;20162;-85
2021/11/17 13:37:36;;;;;;;242.45;225.68;;;9.70;99.90;;;;;;5097024;28;20231;-83
2021/11/17 13:40:33;;;;;;;235.02;218.55;;;9.70;99.90;;;;;;5097418;28;20217;-85
2021/11/17 13:43:36;;;;;;;238.40;221.68;;;9.80;99.90;;;;;;5095587;28;20170;-85
2021/11/17 13:46:24;;;;;;;280.55;262.27;;;9.80;99.90;;;;;;5082656;28;20167;-85
2021/11/17 13:49:18;;;;;;;260.42;242.15;;;9.80;99.90;;;;;;5095846;28;20690;-86
2021/11/17 13:51:57;;;;;;;266.83;249.38;;;9.80;99.90;;;;;;5095760;28;20183;-85
2021/11/17 13:55:13;;;;;;;256.00;238.27;;;9.80;99.90;;;;;;5095419;28;20539;-85
2021/11/17 13:58:18;;;;;;;;;;;;;;;;;;;;;
2021/11/17 14:01:09;;;;;;;285.08;266.35;;;9.80;99.90;;;;;;5087404;28;20254;-85
2021/11/17 14:03:52;;;;;;;278.70;260.42;;;9.70;99.90;;;;;;5096815;28;20170;-85
2021/11/17 14:06:29;;;;;;;286.58;268.48;;;9.80;99.90;;;;;;5095316;28;20171;-85
2021/11/17 14:09:12;;;;;;;261.52;244.00;;;9.80;99.90;;;;;;5095556;28;20282;-85
2021/11/17 14:11:38;;;;;;;331.17;310.20;;;9.80;99.90;;;;;;5095813;28;20167;-85
2021/11/17 14:14:16;;;;;;;256.60;238.90;;;9.80;99.90;;;;;;5095487;28;20179;-85
2021/11/17 14:16:51;;;;;;;275.52;257.38;;;9.80;99.90;;;;;;5095514;28;20163;-85
2021/11/17 14:19:30;;;;;;;296.38;277.40;;;9.80;99.90;;;;;;5095151;28;20302;-85
2021/11/17 14:22:03;;;;;;;272.55;253.90;;;9.80;99.90;;;;;;5095505;28;20275;-85
2021/11/17 14:24:56;;;;;;;272.73;254.38;;;9.80;99.90;;;;;;5095769;28;20160;-86
2021/11/17 14:27:37;;;;;;;316.83;296.63;;;9.80;99.90;;;;;;5096030;28;20614;-86
2021/11/17 14:30:41;;;;;;;;;;;;;;;;;;;;;
2021/11/17 14:33:37;;;;;;;259.25;241.18;;;9.80;99.90;;;;;;5094220;28;20270;-85
2021/11/17 14:40:10;;;;;;;;;;;;;;;;;;;;;
2021/11/17 14:46:48;;;;;;;266.77;248.13;;;9.80;99.90;;;;;;4998565;28;20170;-85
2021/11/17 14:50:33;;;;;;;326.45;306.10;;;9.80;99.90;;;;;;4953464;29;20212;-85
2021/11/17 15:04:34;;;;;;;;;;;;;;;;;;;;;
2021/11/17 15:07:28;;;;;;;276.95;258.10;;;9.80;99.90;;;;;;5079152;28;20246;-84
2021/11/17 15:09:59;;;;;;;215.35;198.52;;;9.80;99.90;;;;;;5078118;28;20186;-85
2021/11/17 15:13:50;;;;;;;240.00;221.68;;;9.70;99.90;;;;;;5077158;28;20238;-85
2021/11/17 15:16:09;;;;;;;240.60;223.80;;;9.70;99.90;;;;;;5011847;28;20199;-84
2021/11/17 15:19:53;;;;;;;273.00;255.07;;;9.80;99.90;;;;;;5016351;28;20261;-84
2021/11/17 15:25:54;;;;;;;254.68;237.60;;;9.80;99.90;;;;;;5006782;28;20170;-85
2021/11/17 15:28:50;;;;;;;249.32;231.75;;;9.80;99.90;;;;;;5003545;28;20174;-85
2021/11/17 15:32:01;;;;;;;247.13;229.98;;;9.80;99.90;;;;;;4996266;28;20558;-85
2021/11/17 15:34:32;;;;;;;243.65;226.77;;;9.80;99.90;;;;;;4977547;28;20183;-84
2021/11/17 15:37:47;;;;;;;;;;;;;;;;;;;;;
2021/11/17 15:40:42;;;;;;;229.18;212.52;;;9.80;99.90;;;;;;5062729;28;20634;-85
2021/11/17 15:43:39;;;;;;;221.85;205.38;;;9.70;99.90;;;;;;5078364;28;20187;-84
2021/11/17 15:50:11;;;;;;;279.02;260.42;;;9.70;99.90;;;;;;5072870;28;20188;-85
2021/11/17 15:52:36;;;;;;;289.05;269.50;;;9.80;99.90;;;;;;5077917;28;20242;-84
2021/11/17 15:55:03;;;;;;;281.17;262.70;;;9.80;99.90;;;;;;5077675;28;20194;-84
2021/11/17 15:57:32;;;;;;;266.45;248.02;;;9.80;99.90;;;;;;5078179;28;20239;-84
2021/11/17 16:01:01;;;;;;;301.48;281.75;;;9.70;99.90;;;;;;5076454;28;20295;-84
2021/11/17 16:03:31;;;;;;;281.33;263.23;;;9.80;99.90;;;;;;5072052;28;20586;-84
2021/11/17 16:06:28;;;;;;;245.88;228.52;;;9.70;99.90;;;;;;5077600;28;20670;-84
2021/11/17 16:09:03;;;;;;;240.70;223.07;;;9.70;99.90;;;;;;5077824;28;20548;-85
2021/11/17 16:11:31;;;;;;;236.95;220.27;;;9.80;99.90;;;;;;5078109;28;20226;-85
2021/11/17 16:14:03;;;;;;;250.82;233.15;;;9.80;99.90;;;;;;5077647;28;20164;-85
2021/11/17 16:17:25;;;;;;;256.92;239.23;;;9.70;99.90;;;;;;5077065;28;20174;-85
2021/11/17 16:20:07;;;;;;;257.73;240.02;;;9.70;99.90;;;;;;5035963;28;20224;-85
2021/11/17 16:25:32;;;;;;;215.57;198.52;;;9.60;99.90;;;;;;5032001;28;20175;-85
2021/11/17 16:26:29;;;;;;;;;;;;;;;;;;;;;
2021/11/17 16:29:26;;;;;;;226.23;210.02;;;9.60;99.90;;;;;;5036298;28;20180;-83
2021/11/17 16:32:26;;;;;;;228.05;211.38;;;9.50;99.90;;;;;;5018946;28;20268;-85
2021/11/17 16:35:35;;;;;;;234.27;217.07;;;9.40;99.90;;;;;;5035256;28;20169;-86
2021/11/17 16:38:08;;;;;;;245.15;228.30;;;9.40;99.90;;;;;;5075325;28;20253;-86
2021/11/17 16:40:51;;;;;;;260.60;242.63;;;9.30;99.90;;;;;;5077042;28;20160;-85
2021/11/17 16:44:05;;;;;;;255.32;237.68;;;9.30;99.90;;;;;;5074684;28;20562;-86
2021/11/17 16:46:55;;;;;;;260.10;242.13;;;9.30;99.90;;;;;;5074990;28;20206;-86
2021/11/17 16:49:24;;;;;;;245.45;228.18;;;9.30;99.90;;;;;;5074310;28;20263;-86
2021/11/17 16:52:15;;;;;;;250.93;233.27;;;9.20;99.90;;;;;;5074552;28;20180;-85
2021/11/17 16:55:05;;;;;;;259.80;241.85;;;9.20;99.90;;;;;;5077186;28;20254;-86
2021/11/17 16:57:45;;;;;;;264.45;246.43;;;9.20;99.90;;;;;;5072569;28;20176;-85
2021/11/17 17:00:20;;;;;;;264.27;246.27;;;9.10;99.90;;;;;;5060353;28;20190;-85
2021/11/17 17:02:49;;;;;;;238.02;219.88;;;9.10;99.90;;;;;;5075608;28;20203;-85
2021/11/17 17:05:28;;;;;;;228.70;211.48;;;9.10;99.90;;;;;;5076303;28;20645;-85
2021/11/17 17:07:57;;;;;;;302.52;281.70;;;9.10;99.90;;;;;;5077361;28;20147;-86
2021/11/17 17:10:40;;;;;;;224.32;207.55;;;9.10;99.90;;;;;;5075666;28;20184;-86
2021/11/17 17:13:19;;;;;;;225.88;209.02;;;9.00;99.90;;;;;;5075335;28;20206;-86
2021/11/17 17:16:34;;;;;;;242.27;224.23;;;9.00;99.90;;;;;;5075101;28;20172;-85
2021/11/17 17:19:05;;;;;;;261.08;242.82;;;8.90;99.90;;;;;;5034419;28;20200;-86
2021/11/17 17:21:34;;;;;;;230.25;212.98;;;8.90;99.90;;;;;;5072884;28;20168;-86
2021/11/17 17:24:05;;;;;;;228.75;211.27;;;8.90;99.90;;;;;;5075035;28;20175;-85
2021/11/17 17:26:34;;;;;;;264.65;245.85;;;8.90;99.90;;;;;;5077085;28;20172;-86